sensor_id;sensor_type;location;lat;lon;timestamp;pressure;altitude;pressure_sealevel;temperature;humidity
34742;BME280;20968;42.696;23.360;2023-02-22T00:01:09;95226.78;;;11.41;43.46
34742;BME280;20968;42.696;23.360;2023-02-22T00:03:47;95232.94;;;11.50;43.69
34742;BME280;20968;42.696;23.360;2023-02-22T00:06:16;95222.19;;;11.52;43.11
34742;BME280;20968;42.696;23.360;2023-02-22T00:08:41;95226.03;;;11.40;42.97
34742;BME280;20968;42.696;23.360;2023-02-22T00:11:08;95220.44;;;11.35;43.78
34742;BME280;20968;42.696;23.360;2023-02-22T00:13:35;95217.41;;;11.33;43.46
34742;BME280;20968;42.696;23.360;2023-02-22T00:16:01;95217.97;;;11.37;43.85
34742;BME280;20968;42.696;23.360;2023-02-22T00:18:28;95225.66;;;11.33;43.81
34742;BME280;20968;42.696;23.360;2023-02-22T00:20:58;95231.19;;;11.33;43.78
34742;BME280;20968;42.696;23.360;2023-02-22T00:23:25;95224.22;;;11.37;43.76
34742;BME280;20968;42.696;23.360;2023-02-22T00:25:53;95217.41;;;11.33;43.88
34742;BME280;20968;42.696;23.360;2023-02-22T00:28:19;95227.06;;;11.43;43.63
34742;BME280;20968;42.696;23.360;2023-02-22T00:30:45;95221.66;;;11.34;43.99
34742;BME280;20968;42.696;23.360;2023-02-22T00:33:13;95230.84;;;11.45;43.55
34742;BME280;20968;42.696;23.360;2023-02-22T00:35:39;95221.25;;;11.41;43.81
34742;BME280;20968;42.696;23.360;2023-02-22T00:38:05;95216.03;;;11.43;43.90
34742;BME280;20968;42.696;23.360;2023-02-22T00:40:33;95214.59;;;11.47;43.27
34742;BME280;20968;42.696;23.360;2023-02-22T00:43:01;95219.50;;;11.58;44.21
34742;BME280;20968;42.696;23.360;2023-02-22T00:45:28;95221.75;;;11.59;44.42
34742;BME280;20968;42.696;23.360;2023-02-22T00:47:54;95218.97;;;11.54;43.68
34742;BME280;20968;42.696;23.360;2023-02-22T00:50:22;95200.03;;;11.47;43.71
34742;BME280;20968;42.696;23.360;2023-02-22T00:52:48;95194.31;;;11.50;43.57
34742;BME280;20968;42.696;23.360;2023-02-22T00:55:31;95206.22;;;11.56;43.62
34742;BME280;20968;42.696;23.360;2023-02-22T00:57:57;95203.06;;;11.49;43.34
34742;BME280;20968;42.696;23.360;2023-02-22T01:00:28;95195.81;;;11.51;43.39
34742;BME280;20968;42.696;23.360;2023-02-22T01:02:55;95194.19;;;11.39;44.28
34742;BME280;20968;42.696;23.360;2023-02-22T01:05:23;95195.22;;;11.42;44.33
34742;BME280;20968;42.696;23.360;2023-02-22T01:07:49;95184.88;;;11.37;43.82
34742;BME280;20968;42.696;23.360;2023-02-22T01:10:17;95188.88;;;11.36;43.84
34742;BME280;20968;42.696;23.360;2023-02-22T01:12:42;95184.72;;;11.26;44.19
34742;BME280;20968;42.696;23.360;2023-02-22T01:15:09;95190.72;;;11.24;43.98
34742;BME280;20968;42.696;23.360;2023-02-22T01:17:37;95197.00;;;11.25;44.33
34742;BME280;20968;42.696;23.360;2023-02-22T01:20:08;95196.03;;;11.28;44.18
34742;BME280;20968;42.696;23.360;2023-02-22T01:22:41;95183.91;;;11.20;44.36
34742;BME280;20968;42.696;23.360;2023-02-22T01:25:10;95187.97;;;11.24;44.24
34742;BME280;20968;42.696;23.360;2023-02-22T01:27:36;95187.41;;;11.20;44.13
34742;BME280;20968;42.696;23.360;2023-02-22T01:30:04;95185.06;;;11.13;44.68
34742;BME280;20968;42.696;23.360;2023-02-22T01:32:35;95189.81;;;11.13;44.72
34742;BME280;20968;42.696;23.360;2023-02-22T01:35:06;95184.25;;;11.07;44.51
34742;BME280;20968;42.696;23.360;2023-02-22T01:37:34;95176.09;;;10.98;44.36
34742;BME280;20968;42.696;23.360;2023-02-22T01:40:00;95189.13;;;10.98;45.06
34742;BME280;20968;42.696;23.360;2023-02-22T01:42:26;95190.06;;;10.95;45.19
34742;BME280;20968;42.696;23.360;2023-02-22T01:48:08;95185.66;;;10.83;45.08
34742;BME280;20968;42.696;23.360;2023-02-22T01:50:39;95186.06;;;10.76;44.95
34742;BME280;20968;42.696;23.360;2023-02-22T01:53:07;95189.28;;;10.75;45.34
34742;BME280;20968;42.696;23.360;2023-02-22T01:55:33;95187.97;;;10.70;45.59
34742;BME280;20968;42.696;23.360;2023-02-22T01:58:00;95180.66;;;10.67;45.79
34742;BME280;20968;42.696;23.360;2023-02-22T02:00:26;95193.50;;;10.70;45.86
34742;BME280;20968;42.696;23.360;2023-02-22T02:02:57;95189.41;;;10.66;46.06
34742;BME280;20968;42.696;23.360;2023-02-22T02:05:27;95188.84;;;10.62;46.03
34742;BME280;20968;42.696;23.360;2023-02-22T02:07:56;95203.38;;;10.62;46.12
34742;BME280;20968;42.696;23.360;2023-02-22T02:10:22;95188.69;;;10.51;46.20
34742;BME280;20968;42.696;23.360;2023-02-22T02:12:50;95195.41;;;10.50;46.51
34742;BME280;20968;42.696;23.360;2023-02-22T02:15:28;95195.31;;;10.44;46.38
34742;BME280;20968;42.696;23.360;2023-02-22T02:17:58;95195.31;;;10.44;46.32
34742;BME280;20968;42.696;23.360;2023-02-22T02:27:01;95194.56;;;10.29;46.64
34742;BME280;20968;42.696;23.360;2023-02-22T02:42:52;95202.41;;;9.79;47.53
34742;BME280;20968;42.696;23.360;2023-02-22T02:45:49;95210.09;;;9.89;47.71
34742;BME280;20968;42.696;23.360;2023-02-22T02:48:18;95216.34;;;9.90;47.26
34742;BME280;20968;42.696;23.360;2023-02-22T02:50:48;95219.28;;;9.86;47.83
34742;BME280;20968;42.696;23.360;2023-02-22T02:53:21;95209.81;;;9.87;48.04
34742;BME280;20968;42.696;23.360;2023-02-22T02:55:47;95215.13;;;9.91;47.33
34742;BME280;20968;42.696;23.360;2023-02-22T02:58:21;95215.97;;;9.97;47.61
34742;BME280;20968;42.696;23.360;2023-02-22T03:00:50;95207.16;;;9.93;48.09
34742;BME280;20968;42.696;23.360;2023-02-22T03:03:34;95210.47;;;9.97;47.45
34742;BME280;20968;42.696;23.360;2023-02-22T03:06:26;95210.59;;;10.02;48.06
34742;BME280;20968;42.696;23.360;2023-02-22T03:11:31;95221.13;;;10.04;47.98
34742;BME280;20968;42.696;23.360;2023-02-22T03:14:15;95214.19;;;9.94;48.18
34742;BME280;20968;42.696;23.360;2023-02-22T03:19:32;95216.41;;;10.04;47.94
34742;BME280;20968;42.696;23.360;2023-02-22T03:24:41;95210.03;;;10.12;48.18
34742;BME280;20968;42.696;23.360;2023-02-22T03:27:14;95209.41;;;10.17;48.19
34742;BME280;20968;42.696;23.360;2023-02-22T03:29:48;95215.72;;;10.09;48.41
34742;BME280;20968;42.696;23.360;2023-02-22T03:32:20;95216.59;;;10.15;47.41
34742;BME280;20968;42.696;23.360;2023-02-22T03:34:58;95220.56;;;10.14;47.98
34742;BME280;20968;42.696;23.360;2023-02-22T03:37:29;95218.88;;;10.16;47.79
34742;BME280;20968;42.696;23.360;2023-02-22T03:39:59;95213.84;;;10.15;47.96
34742;BME280;20968;42.696;23.360;2023-02-22T03:42:29;95202.63;;;10.18;48.07
34742;BME280;20968;42.696;23.360;2023-02-22T03:44:58;95220.28;;;10.26;47.72
34742;BME280;20968;42.696;23.360;2023-02-22T03:47:48;95223.81;;;10.27;48.41
34742;BME280;20968;42.696;23.360;2023-02-22T03:50:19;95225.03;;;10.26;48.23
34742;BME280;20968;42.696;23.360;2023-02-22T03:52:46;95216.13;;;10.16;48.37
34742;BME280;20968;42.696;23.360;2023-02-22T03:55:12;95222.97;;;10.21;48.45
34742;BME280;20968;42.696;23.360;2023-02-22T03:57:48;95219.16;;;10.18;47.86
34742;BME280;20968;42.696;23.360;2023-02-22T04:00:19;95215.16;;;10.19;48.07
34742;BME280;20968;42.696;23.360;2023-02-22T04:02:46;95213.56;;;10.13;48.42
34742;BME280;20968;42.696;23.360;2023-02-22T04:05:12;95228.75;;;10.08;48.32
34742;BME280;20968;42.696;23.360;2023-02-22T04:07:39;95214.09;;;10.03;47.78
34742;BME280;20968;42.696;23.360;2023-02-22T04:10:05;95218.31;;;9.98;47.90
34742;BME280;20968;42.696;23.360;2023-02-22T04:12:33;95212.03;;;9.98;48.46
34742;BME280;20968;42.696;23.360;2023-02-22T04:14:59;95215.13;;;9.91;47.72
34742;BME280;20968;42.696;23.360;2023-02-22T04:17:24;95213.59;;;9.90;47.31
34742;BME280;20968;42.696;23.360;2023-02-22T04:19:50;95210.94;;;9.81;47.54
34742;BME280;20968;42.696;23.360;2023-02-22T04:22:16;95210.56;;;9.73;47.66
34742;BME280;20968;42.696;23.360;2023-02-22T04:24:41;95222.41;;;9.79;48.20
34742;BME280;20968;42.696;23.360;2023-02-22T04:27:06;95224.69;;;9.81;48.20
34742;BME280;20968;42.696;23.360;2023-02-22T04:29:32;95220.59;;;9.76;48.13
34742;BME280;20968;42.696;23.360;2023-02-22T04:31:57;95220.50;;;9.71;47.60
34742;BME280;20968;42.696;23.360;2023-02-22T04:34:23;95233.88;;;9.78;47.52
34742;BME280;20968;42.696;23.360;2023-02-22T04:36:49;95220.56;;;9.62;47.90
34742;BME280;20968;42.696;23.360;2023-02-22T04:39:14;95231.22;;;9.69;47.58
34742;BME280;20968;42.696;23.360;2023-02-22T04:41:39;95213.56;;;9.61;48.48
34742;BME280;20968;42.696;23.360;2023-02-22T04:44:05;95226.56;;;9.60;47.91
34742;BME280;20968;42.696;23.360;2023-02-22T04:46:30;95212.09;;;9.51;48.53
34742;BME280;20968;42.696;23.360;2023-02-22T04:48:56;95229.94;;;9.55;48.46
34742;BME280;20968;42.696;23.360;2023-02-22T04:51:22;95231.53;;;9.47;48.48
34742;BME280;20968;42.696;23.360;2023-02-22T04:53:48;95224.41;;;9.41;49.11
34742;BME280;20968;42.696;23.360;2023-02-22T04:56:16;95223.81;;;9.37;48.60
34742;BME280;20968;42.696;23.360;2023-02-22T04:58:42;95226.00;;;9.33;48.97
34742;BME280;20968;42.696;23.360;2023-02-22T05:01:07;95220.94;;;9.31;49.25
34742;BME280;20968;42.696;23.360;2023-02-22T05:03:33;95236.22;;;9.32;48.88
34742;BME280;20968;42.696;23.360;2023-02-22T05:05:58;95232.00;;;9.23;48.71
34742;BME280;20968;42.696;23.360;2023-02-22T05:08:23;95240.09;;;9.26;61.83
34742;BME280;20968;42.696;23.360;2023-02-22T05:10:49;95229.31;;;9.98;61.20
34742;BME280;20968;42.696;23.360;2023-02-22T05:13:16;95241.16;;;10.62;58.53
34742;BME280;20968;42.696;23.360;2023-02-22T05:15:41;95234.16;;;10.95;53.75
34742;BME280;20968;42.696;23.360;2023-02-22T05:18:07;95227.97;;;11.00;52.19
34742;BME280;20968;42.696;23.360;2023-02-22T05:20:33;95241.66;;;11.29;47.67
34742;BME280;20968;42.696;23.360;2023-02-22T05:23:00;95244.75;;;11.16;45.77
34742;BME280;20968;42.696;23.360;2023-02-22T05:25:27;95244.91;;;10.93;45.63
34742;BME280;20968;42.696;23.360;2023-02-22T05:27:56;95236.88;;;10.75;45.07
34742;BME280;20968;42.696;23.360;2023-02-22T05:30:27;95250.38;;;10.59;45.65
34742;BME280;20968;42.696;23.360;2023-02-22T05:32:53;95255.28;;;10.40;46.06
34742;BME280;20968;42.696;23.360;2023-02-22T05:35:19;95255.97;;;10.21;46.51
34742;BME280;20968;42.696;23.360;2023-02-22T05:37:45;95264.31;;;10.12;46.30
34742;BME280;20968;42.696;23.360;2023-02-22T05:40:12;95272.06;;;9.99;46.65
34742;BME280;20968;42.696;23.360;2023-02-22T05:42:39;95272.75;;;9.85;47.09
34742;BME280;20968;42.696;23.360;2023-02-22T05:45:06;95268.59;;;9.75;47.45
34742;BME280;20968;42.696;23.360;2023-02-22T05:47:32;95267.25;;;9.71;47.75
34742;BME280;20968;42.696;23.360;2023-02-22T05:49:58;95271.78;;;9.74;47.24
34742;BME280;20968;42.696;23.360;2023-02-22T05:52:23;95272.75;;;9.71;48.38
34742;BME280;20968;42.696;23.360;2023-02-22T05:54:49;95277.81;;;9.63;48.27
34742;BME280;20968;42.696;23.360;2023-02-22T05:57:15;95280.41;;;9.67;48.04
34742;BME280;20968;42.696;23.360;2023-02-22T05:59:40;95282.50;;;9.72;47.95
34742;BME280;20968;42.696;23.360;2023-02-22T06:02:07;95274.53;;;9.74;48.47
34742;BME280;20968;42.696;23.360;2023-02-22T06:04:32;95273.78;;;9.73;48.61
34742;BME280;20968;42.696;23.360;2023-02-22T06:06:58;95279.16;;;9.68;49.11
34742;BME280;20968;42.696;23.360;2023-02-22T06:09:23;95283.75;;;9.71;48.98
34742;BME280;20968;42.696;23.360;2023-02-22T06:11:49;95274.34;;;9.63;48.88
34742;BME280;20968;42.696;23.360;2023-02-22T06:14:14;95276.72;;;9.70;48.94
34742;BME280;20968;42.696;23.360;2023-02-22T06:16:39;95271.78;;;9.74;49.45
34742;BME280;20968;42.696;23.360;2023-02-22T06:19:05;95276.34;;;9.77;49.06
34742;BME280;20968;42.696;23.360;2023-02-22T06:21:30;95279.66;;;9.81;48.68
34742;BME280;20968;42.696;23.360;2023-02-22T06:23:56;95281.38;;;9.78;48.66
34742;BME280;20968;42.696;23.360;2023-02-22T06:26:21;95283.13;;;9.90;49.40
34742;BME280;20968;42.696;23.360;2023-02-22T06:28:47;95271.75;;;9.97;48.78
34742;BME280;20968;42.696;23.360;2023-02-22T06:31:13;95270.84;;;10.00;49.35
34742;BME280;20968;42.696;23.360;2023-02-22T06:33:39;95277.97;;;10.07;49.16
34742;BME280;20968;42.696;23.360;2023-02-22T06:36:04;95277.41;;;10.17;48.11
34742;BME280;20968;42.696;23.360;2023-02-22T06:38:30;95280.81;;;10.26;48.05
34742;BME280;20968;42.696;23.360;2023-02-22T06:40:56;95299.19;;;10.44;48.93
34742;BME280;20968;42.696;23.360;2023-02-22T06:43:22;95296.13;;;10.56;49.02
34742;BME280;20968;42.696;23.360;2023-02-22T06:45:49;95297.44;;;10.75;48.40
34742;BME280;20968;42.696;23.360;2023-02-22T06:48:14;95297.66;;;10.72;48.00
34742;BME280;20968;42.696;23.360;2023-02-22T06:50:40;95295.22;;;11.08;46.98
34742;BME280;20968;42.696;23.360;2023-02-22T06:53:05;95293.84;;;11.18;46.82
34742;BME280;20968;42.696;23.360;2023-02-22T06:55:33;95288.88;;;11.36;47.09
34742;BME280;20968;42.696;23.360;2023-02-22T06:57:59;95286.19;;;11.42;46.14
34742;BME280;20968;42.696;23.360;2023-02-22T07:00:27;95281.19;;;11.60;45.85
34742;BME280;20968;42.696;23.360;2023-02-22T07:02:53;95291.41;;;11.74;45.81
34742;BME280;20968;42.696;23.360;2023-02-22T07:05:20;95281.44;;;11.76;45.70
34742;BME280;20968;42.696;23.360;2023-02-22T07:07:47;95291.19;;;11.77;45.93
34742;BME280;20968;42.696;23.360;2023-02-22T07:10:26;95280.94;;;11.78;45.44
34742;BME280;20968;42.696;23.360;2023-02-22T07:12:52;95296.44;;;11.95;45.40
34742;BME280;20968;42.696;23.360;2023-02-22T07:15:22;95295.81;;;12.06;45.31
34742;BME280;20968;42.696;23.360;2023-02-22T07:17:49;95298.16;;;12.13;45.51
34742;BME280;20968;42.696;23.360;2023-02-22T07:20:15;95292.28;;;12.25;44.46
34742;BME280;20968;42.696;23.360;2023-02-22T07:22:40;95293.38;;;12.33;44.97
34742;BME280;20968;42.696;23.360;2023-02-22T07:25:07;95289.78;;;12.27;45.05
34742;BME280;20968;42.696;23.360;2023-02-22T07:27:41;95288.63;;;12.34;44.47
34742;BME280;20968;42.696;23.360;2023-02-22T07:30:15;95285.56;;;12.32;43.94
34742;BME280;20968;42.696;23.360;2023-02-22T07:32:42;95285.34;;;12.35;43.76
34742;BME280;20968;42.696;23.360;2023-02-22T07:35:19;95285.22;;;12.24;43.38
34742;BME280;20968;42.696;23.360;2023-02-22T07:37:44;95273.72;;;12.26;43.75
34742;BME280;20968;42.696;23.360;2023-02-22T07:40:12;95262.91;;;12.22;43.70
34742;BME280;20968;42.696;23.360;2023-02-22T07:43:04;95277.88;;;12.41;42.91
34742;BME280;20968;42.696;23.360;2023-02-22T07:45:31;95288.84;;;12.55;42.75
34742;BME280;20968;42.696;23.360;2023-02-22T07:47:58;95286.22;;;12.72;43.41
34742;BME280;20968;42.696;23.360;2023-02-22T07:50:25;95276.25;;;12.80;42.69
34742;BME280;20968;42.696;23.360;2023-02-22T07:52:53;95270.66;;;12.74;41.44
34742;BME280;20968;42.696;23.360;2023-02-22T07:55:21;95287.28;;;12.80;42.25
34742;BME280;20968;42.696;23.360;2023-02-22T07:57:48;95278.41;;;12.96;42.03
34742;BME280;20968;42.696;23.360;2023-02-22T08:00:22;95287.50;;;13.02;41.72
34742;BME280;20968;42.696;23.360;2023-02-22T08:02:48;95276.53;;;13.13;42.01
34742;BME280;20968;42.696;23.360;2023-02-22T08:05:14;95278.66;;;13.28;41.42
34742;BME280;20968;42.696;23.360;2023-02-22T08:07:40;95273.63;;;13.32;41.28
34742;BME280;20968;42.696;23.360;2023-02-22T08:10:08;95271.59;;;13.27;41.65
34742;BME280;20968;42.696;23.360;2023-02-22T08:12:35;95275.69;;;13.37;40.95
34742;BME280;20968;42.696;23.360;2023-02-22T08:15:03;95263.59;;;13.35;41.71
34742;BME280;20968;42.696;23.360;2023-02-22T08:17:29;95261.59;;;13.35;40.85
34742;BME280;20968;42.696;23.360;2023-02-22T08:19:54;95253.84;;;13.45;40.85
34742;BME280;20968;42.696;23.360;2023-02-22T08:22:19;95247.31;;;13.42;40.97
34742;BME280;20968;42.696;23.360;2023-02-22T08:24:45;95254.44;;;13.60;41.35
34742;BME280;20968;42.696;23.360;2023-02-22T08:27:10;95262.50;;;13.63;42.43
34742;BME280;20968;42.696;23.360;2023-02-22T08:29:36;95268.31;;;13.65;41.41
34742;BME280;20968;42.696;23.360;2023-02-22T08:32:01;95264.59;;;13.79;41.08
34742;BME280;20968;42.696;23.360;2023-02-22T08:34:27;95255.53;;;13.79;40.96
34742;BME280;20968;42.696;23.360;2023-02-22T08:36:53;95247.00;;;13.88;40.32
34742;BME280;20968;42.696;23.360;2023-02-22T08:39:19;95258.94;;;14.10;39.89
34742;BME280;20968;42.696;23.360;2023-02-22T08:41:45;95251.81;;;13.98;39.57
34742;BME280;20968;42.696;23.360;2023-02-22T08:44:10;95252.41;;;14.13;39.53
34742;BME280;20968;42.696;23.360;2023-02-22T08:46:35;95244.81;;;14.08;39.27
34742;BME280;20968;42.696;23.360;2023-02-22T08:49:01;95245.91;;;14.21;40.54
34742;BME280;20968;42.696;23.360;2023-02-22T08:51:27;95241.88;;;14.28;39.35
34742;BME280;20968;42.696;23.360;2023-02-22T08:53:53;95250.47;;;14.41;39.11
34742;BME280;20968;42.696;23.360;2023-02-22T08:56:19;95252.53;;;14.57;38.92
34742;BME280;20968;42.696;23.360;2023-02-22T08:58:45;95244.44;;;14.59;39.24
34742;BME280;20968;42.696;23.360;2023-02-22T09:01:10;95242.94;;;14.69;39.18
34742;BME280;20968;42.696;23.360;2023-02-22T09:03:35;95237.16;;;14.61;39.63
34742;BME280;20968;42.696;23.360;2023-02-22T09:06:03;95240.94;;;14.75;39.35
34742;BME280;20968;42.696;23.360;2023-02-22T09:08:28;95244.72;;;14.93;38.58
34742;BME280;20968;42.696;23.360;2023-02-22T09:10:53;95228.09;;;14.99;38.89
34742;BME280;20968;42.696;23.360;2023-02-22T09:13:19;95230.59;;;15.08;38.99
34742;BME280;20968;42.696;23.360;2023-02-22T09:15:44;95229.84;;;15.07;40.30
34742;BME280;20968;42.696;23.360;2023-02-22T09:18:12;95232.59;;;15.29;39.25
34742;BME280;20968;42.696;23.360;2023-02-22T09:20:39;95228.06;;;15.37;39.47
34742;BME280;20968;42.696;23.360;2023-02-22T09:23:05;95217.66;;;15.54;38.54
34742;BME280;20968;42.696;23.360;2023-02-22T09:25:31;95218.59;;;15.78;38.42
34742;BME280;20968;42.696;23.360;2023-02-22T09:27:58;95220.09;;;15.85;38.42
34742;BME280;20968;42.696;23.360;2023-02-22T09:32:56;95218.72;;;16.08;37.94
34742;BME280;20968;42.696;23.360;2023-02-22T09:35:22;95211.09;;;16.19;37.89
34742;BME280;20968;42.696;23.360;2023-02-22T09:37:58;95208.78;;;16.29;37.78
34742;BME280;20968;42.696;23.360;2023-02-22T09:40:30;95212.75;;;16.38;37.65
34742;BME280;20968;42.696;23.360;2023-02-22T09:48:54;95200.94;;;16.67;36.60
34742;BME280;20968;42.696;23.360;2023-02-22T09:51:24;95201.13;;;16.75;36.14
34742;BME280;20968;42.696;23.360;2023-02-22T09:53:55;95199.00;;;16.86;36.94
34742;BME280;20968;42.696;23.360;2023-02-22T09:56:23;95194.69;;;17.14;35.09
34742;BME280;20968;42.696;23.360;2023-02-22T09:58:54;95199.66;;;17.27;34.10
34742;BME280;20968;42.696;23.360;2023-02-22T10:01:27;95193.56;;;17.28;34.95
34742;BME280;20968;42.696;23.360;2023-02-22T10:07:02;95191.56;;;17.53;34.03
34742;BME280;20968;42.696;23.360;2023-02-22T10:09:37;95192.19;;;17.64;33.43
34742;BME280;20968;42.696;23.360;2023-02-22T10:14:55;95173.53;;;17.78;33.65
34742;BME280;20968;42.696;23.360;2023-02-22T10:25:23;95149.75;;;18.50;32.21
34742;BME280;20968;42.696;23.360;2023-02-22T10:27:55;95161.41;;;18.67;31.65
34742;BME280;20968;42.696;23.360;2023-02-22T10:30:32;95155.88;;;18.80;33.37
34742;BME280;20968;42.696;23.360;2023-02-22T10:33:08;95148.53;;;19.08;32.48
34742;BME280;20968;42.696;23.360;2023-02-22T10:35:37;95133.97;;;19.28;32.36
34742;BME280;20968;42.696;23.360;2023-02-22T10:38:28;95140.06;;;19.14;32.91
34742;BME280;20968;42.696;23.360;2023-02-22T10:40:58;95123.50;;;19.03;32.83
34742;BME280;20968;42.696;23.360;2023-02-22T10:43:26;95122.31;;;18.98;32.62
34742;BME280;20968;42.696;23.360;2023-02-22T10:46:01;95116.31;;;19.07;32.46
34742;BME280;20968;42.696;23.360;2023-02-22T10:48:30;95120.53;;;19.14;31.76
34742;BME280;20968;42.696;23.360;2023-02-22T10:50:59;95110.19;;;19.09;31.92
34742;BME280;20968;42.696;23.360;2023-02-22T10:53:27;95113.00;;;19.22;32.01
34742;BME280;20968;42.696;23.360;2023-02-22T10:58:48;95098.97;;;19.53;31.45
34742;BME280;20968;42.696;23.360;2023-02-22T11:04:16;95104.50;;;19.79;31.66
34742;BME280;20968;42.696;23.360;2023-02-22T11:06:45;95109.03;;;19.69;31.38
34742;BME280;20968;42.696;23.360;2023-02-22T11:09:18;95091.53;;;19.55;31.29
34742;BME280;20968;42.696;23.360;2023-02-22T11:11:47;95092.06;;;19.67;31.66
34742;BME280;20968;42.696;23.360;2023-02-22T11:14:33;95085.69;;;19.79;30.88
34742;BME280;20968;42.696;23.360;2023-02-22T11:17:00;95081.38;;;20.04;31.23
34742;BME280;20968;42.696;23.360;2023-02-22T11:19:34;95071.19;;;20.27;31.16
34742;BME280;20968;42.696;23.360;2023-02-22T11:24:28;95072.41;;;20.39;30.79
34742;BME280;20968;42.696;23.360;2023-02-22T11:27:00;95069.63;;;20.39;30.37
34742;BME280;20968;42.696;23.360;2023-02-22T11:32:00;95064.56;;;20.58;29.87
34742;BME280;20968;42.696;23.360;2023-02-22T11:34:36;95061.28;;;20.67;29.77
34742;BME280;20968;42.696;23.360;2023-02-22T11:39:47;95049.28;;;20.79;29.45
34742;BME280;20968;42.696;23.360;2023-02-22T11:42:28;95050.75;;;21.01;29.59
34742;BME280;20968;42.696;23.360;2023-02-22T11:45:13;95055.47;;;21.33;29.12
34742;BME280;20968;42.696;23.360;2023-02-22T11:48:00;95055.34;;;21.46;28.31
34742;BME280;20968;42.696;23.360;2023-02-22T11:50:32;95049.06;;;21.25;27.95
34742;BME280;20968;42.696;23.360;2023-02-22T11:53:24;95042.22;;;21.41;28.06
34742;BME280;20968;42.696;23.360;2023-02-22T11:56:15;95035.16;;;21.40;28.18
34742;BME280;20968;42.696;23.360;2023-02-22T12:15:27;95028.06;;;21.47;28.39
34742;BME280;20968;42.696;23.360;2023-02-22T12:18:29;95018.56;;;21.50;28.50
34742;BME280;20968;42.696;23.360;2023-02-22T12:21:06;95002.78;;;21.67;28.42
34742;BME280;20968;42.696;23.360;2023-02-22T12:26:18;95003.53;;;21.75;27.46
34742;BME280;20968;42.696;23.360;2023-02-22T12:28:56;95005.91;;;21.56;27.06
34742;BME280;20968;42.696;23.360;2023-02-22T12:31:34;94998.50;;;21.38;27.85
34742;BME280;20968;42.696;23.360;2023-02-22T12:36:39;94993.09;;;21.83;27.33
34742;BME280;20968;42.696;23.360;2023-02-22T12:41:49;94999.03;;;21.72;27.33
34742;BME280;20968;42.696;23.360;2023-02-22T12:44:28;94984.72;;;21.48;27.51
34742;BME280;20968;42.696;23.360;2023-02-22T12:46:57;94995.66;;;21.59;27.53
34742;BME280;20968;42.696;23.360;2023-02-22T12:52:41;94988.69;;;21.17;27.43
34742;BME280;20968;42.696;23.360;2023-02-22T12:57:58;94980.44;;;20.84;28.00
34742;BME280;20968;42.696;23.360;2023-02-22T13:00:40;94979.50;;;20.81;27.70
34742;BME280;20968;42.696;23.360;2023-02-22T13:05:52;94973.13;;;21.09;27.47
34742;BME280;20968;42.696;23.360;2023-02-22T13:14:36;94972.66;;;21.25;27.61
34742;BME280;20968;42.696;23.360;2023-02-22T13:17:57;94961.03;;;21.13;26.62
34742;BME280;20968;42.696;23.360;2023-02-22T13:20:02;94971.84;;;21.10;27.19
34742;BME280;20968;42.696;23.360;2023-02-22T13:27:41;94978.56;;;20.79;28.36
34742;BME280;20968;42.696;23.360;2023-02-22T13:30:19;94965.13;;;20.57;28.33
34742;BME280;20968;42.696;23.360;2023-02-22T13:35:28;94969.78;;;20.34;28.67
34742;BME280;20968;42.696;23.360;2023-02-22T13:51:58;94955.38;;;21.06;27.57
34742;BME280;20968;42.696;23.360;2023-02-22T13:54:53;94945.75;;;21.22;28.46
34742;BME280;20968;42.696;23.360;2023-02-22T13:57:27;94957.06;;;21.44;27.44
34742;BME280;20968;42.696;23.360;2023-02-22T14:03:03;94964.31;;;21.40;27.40
34742;BME280;20968;42.696;23.360;2023-02-22T14:05:45;94960.56;;;21.30;27.16
34742;BME280;20968;42.696;23.360;2023-02-22T14:13:08;94957.41;;;21.33;26.55
34742;BME280;20968;42.696;23.360;2023-02-22T14:15:34;94961.28;;;21.30;27.45
34742;BME280;20968;42.696;23.360;2023-02-22T14:18:12;94959.50;;;21.13;27.45
34742;BME280;20968;42.696;23.360;2023-02-22T14:20:40;94956.28;;;21.01;27.73
34742;BME280;20968;42.696;23.360;2023-02-22T14:24:10;94971.03;;;21.02;27.83
34742;BME280;20968;42.696;23.360;2023-02-22T14:26:30;94955.53;;;21.01;27.98
34742;BME280;20968;42.696;23.360;2023-02-22T14:32:10;94957.44;;;21.06;27.42
34742;BME280;20968;42.696;23.360;2023-02-22T14:34:52;94958.63;;;20.90;27.00
34742;BME280;20968;42.696;23.360;2023-02-22T14:37:24;94965.28;;;20.79;27.17
34742;BME280;20968;42.696;23.360;2023-02-22T14:40:03;94954.97;;;20.74;27.61
34742;BME280;20968;42.696;23.360;2023-02-22T14:43:30;94956.22;;;20.66;27.71
34742;BME280;20968;42.696;23.360;2023-02-22T14:45:52;94956.06;;;20.71;27.83
34742;BME280;20968;42.696;23.360;2023-02-22T14:50:56;94949.81;;;20.58;27.10
34742;BME280;20968;42.696;23.360;2023-02-22T14:53:29;94961.41;;;20.62;26.94
34742;BME280;20968;42.696;23.360;2023-02-22T14:56:05;94956.66;;;20.49;27.49
34742;BME280;20968;42.696;23.360;2023-02-22T15:01:15;94960.41;;;20.32;28.10
34742;BME280;20968;42.696;23.360;2023-02-22T15:03:45;94952.19;;;20.26;27.92
34742;BME280;20968;42.696;23.360;2023-02-22T15:06:20;94940.19;;;20.18;28.40
34742;BME280;20968;42.696;23.360;2023-02-22T15:08:48;94959.56;;;20.16;28.43
34742;BME280;20968;42.696;23.360;2023-02-22T15:11:29;94951.75;;;19.81;29.65
34742;BME280;20968;42.696;23.360;2023-02-22T15:13:59;94946.75;;;19.67;29.88
34742;BME280;20968;42.696;23.360;2023-02-22T15:16:32;94951.41;;;19.52;30.37
34742;BME280;20968;42.696;23.360;2023-02-22T15:18:59;94951.22;;;19.50;30.72
34742;BME280;20968;42.696;23.360;2023-02-22T15:21:27;94951.13;;;19.42;30.91
34742;BME280;20968;42.696;23.360;2023-02-22T15:24:01;94945.03;;;19.31;30.84
34742;BME280;20968;42.696;23.360;2023-02-22T15:26:36;94940.75;;;19.04;31.21
34742;BME280;20968;42.696;23.360;2023-02-22T15:29:20;94945.50;;;18.96;31.96
34742;BME280;20968;42.696;23.360;2023-02-22T15:31:48;94952.78;;;18.86;32.60